sensor_id;sensor_type;location;lat;lon;timestamp;P1;durP1;ratioP1;P2;durP2;ratioP2
34960;SDS011;30789;52.030;7.110;2024-01-16T00:01:44;13.40;;;6.03;;
34960;SDS011;30789;52.030;7.110;2024-01-16T00:04:11;11.95;;;6.32;;
34960;SDS011;30789;52.030;7.110;2024-01-16T00:06:38;16.75;;;5.28;;
34960;SDS011;30789;52.030;7.110;2024-01-16T00:09:07;14.05;;;5.95;;
34960;SDS011;30789;52.030;7.110;2024-01-16T00:11:39;18.05;;;6.45;;
34960;SDS011;30789;52.030;7.110;2024-01-16T00:14:06;13.93;;;6.20;;
34960;SDS011;30789;52.030;7.110;2024-01-16T00:16:32;13.45;;;5.80;;
34960;SDS011;30789;52.030;7.110;2024-01-16T00:18:59;14.68;;;5.85;;
34960;SDS011;30789;52.030;7.110;2024-01-16T00:21:25;13.02;;;5.82;;
34960;SDS011;30789;52.030;7.110;2024-01-16T00:23:52;15.98;;;5.30;;
34960;SDS011;30789;52.030;7.110;2024-01-16T00:26:20;9.70;;;5.32;;
34960;SDS011;30789;52.030;7.110;2024-01-16T00:28:47;12.40;;;5.28;;
34960;SDS011;30789;52.030;7.110;2024-01-16T00:31:14;15.55;;;5.85;;
34960;SDS011;30789;52.030;7.110;2024-01-16T00:33:40;8.85;;;5.07;;
34960;SDS011;30789;52.030;7.110;2024-01-16T00:36:07;14.80;;;4.57;;
34960;SDS011;30789;52.030;7.110;2024-01-16T00:38:34;8.90;;;5.20;;
34960;SDS011;30789;52.030;7.110;2024-01-16T00:41:01;12.93;;;5.15;;
34960;SDS011;30789;52.030;7.110;2024-01-16T00:43:29;9.15;;;4.85;;
34960;SDS011;30789;52.030;7.110;2024-01-16T00:45:55;13.85;;;5.38;;
34960;SDS011;30789;52.030;7.110;2024-01-16T00:48:22;13.10;;;4.72;;
34960;SDS011;30789;52.030;7.110;2024-01-16T00:50:48;13.13;;;5.68;;
34960;SDS011;30789;52.030;7.110;2024-01-16T00:53:15;15.45;;;5.18;;
34960;SDS011;30789;52.030;7.110;2024-01-16T00:55:42;10.23;;;4.55;;
34960;SDS011;30789;52.030;7.110;2024-01-16T00:58:09;16.00;;;5.18;;
34960;SDS011;30789;52.030;7.110;2024-01-16T01:00:36;13.30;;;4.78;;
34960;SDS011;30789;52.030;7.110;2024-01-16T01:03:03;8.20;;;3.78;;
34960;SDS011;30789;52.030;7.110;2024-01-16T01:05:30;14.88;;;4.85;;
34960;SDS011;30789;52.030;7.110;2024-01-16T01:07:57;9.60;;;4.47;;
34960;SDS011;30789;52.030;7.110;2024-01-16T01:10:24;13.35;;;5.45;;
34960;SDS011;30789;52.030;7.110;2024-01-16T01:12:50;14.13;;;4.82;;
34960;SDS011;30789;52.030;7.110;2024-01-16T01:15:19;16.63;;;5.55;;
34960;SDS011;30789;52.030;7.110;2024-01-16T01:17:47;8.90;;;5.20;;
34960;SDS011;30789;52.030;7.110;2024-01-16T01:20:14;9.60;;;5.15;;
34960;SDS011;30789;52.030;7.110;2024-01-16T01:22:41;12.68;;;5.30;;
34960;SDS011;30789;52.030;7.110;2024-01-16T01:25:07;13.60;;;5.78;;
34960;SDS011;30789;52.030;7.110;2024-01-16T01:27:35;22.08;;;6.95;;
34960;SDS011;30789;52.030;7.110;2024-01-16T01:30:02;12.93;;;6.65;;
34960;SDS011;30789;52.030;7.110;2024-01-16T01:32:29;13.07;;;6.47;;
34960;SDS011;30789;52.030;7.110;2024-01-16T01:34:57;19.65;;;7.00;;
34960;SDS011;30789;52.030;7.110;2024-01-16T01:37:24;12.75;;;7.10;;
34960;SDS011;30789;52.030;7.110;2024-01-16T01:39:50;12.77;;;6.45;;
34960;SDS011;30789;52.030;7.110;2024-01-16T01:42:17;17.05;;;6.82;;
34960;SDS011;30789;52.030;7.110;2024-01-16T01:44:44;18.77;;;6.45;;
34960;SDS011;30789;52.030;7.110;2024-01-16T01:47:10;17.25;;;7.45;;
34960;SDS011;30789;52.030;7.110;2024-01-16T01:49:37;16.10;;;6.55;;
34960;SDS011;30789;52.030;7.110;2024-01-16T01:52:06;17.83;;;6.80;;
34960;SDS011;30789;52.030;7.110;2024-01-16T01:54:34;15.40;;;7.40;;
34960;SDS011;30789;52.030;7.110;2024-01-16T01:57:02;15.68;;;7.30;;
34960;SDS011;30789;52.030;7.110;2024-01-16T01:59:30;16.65;;;6.97;;
34960;SDS011;30789;52.030;7.110;2024-01-16T02:01:57;12.45;;;7.25;;
34960;SDS011;30789;52.030;7.110;2024-01-16T02:04:24;19.52;;;7.95;;
34960;SDS011;30789;52.030;7.110;2024-01-16T02:06:52;17.83;;;7.70;;
34960;SDS011;30789;52.030;7.110;2024-01-16T02:09:23;14.55;;;7.22;;
34960;SDS011;30789;52.030;7.110;2024-01-16T02:11:50;11.40;;;7.45;;
34960;SDS011;30789;52.030;7.110;2024-01-16T02:14:16;11.80;;;7.30;;
34960;SDS011;30789;52.030;7.110;2024-01-16T02:16:43;19.85;;;7.95;;
34960;SDS011;30789;52.030;7.110;2024-01-16T02:19:10;13.73;;;7.55;;
34960;SDS011;30789;52.030;7.110;2024-01-16T02:21:38;12.20;;;6.93;;
34960;SDS011;30789;52.030;7.110;2024-01-16T02:24:07;15.40;;;7.50;;
34960;SDS011;30789;52.030;7.110;2024-01-16T02:26:36;14.77;;;8.07;;
34960;SDS011;30789;52.030;7.110;2024-01-16T02:29:03;15.95;;;7.20;;
34960;SDS011;30789;52.030;7.110;2024-01-16T02:31:29;12.98;;;6.97;;
34960;SDS011;30789;52.030;7.110;2024-01-16T02:33:56;10.85;;;7.80;;
34960;SDS011;30789;52.030;7.110;2024-01-16T02:36:23;15.48;;;7.00;;
34960;SDS011;30789;52.030;7.110;2024-01-16T02:38:48;12.43;;;7.10;;
34960;SDS011;30789;52.030;7.110;2024-01-16T02:41:17;14.38;;;7.22;;
34960;SDS011;30789;52.030;7.110;2024-01-16T02:43:44;9.50;;;6.75;;
34960;SDS011;30789;52.030;7.110;2024-01-16T02:46:11;12.40;;;6.88;;
34960;SDS011;30789;52.030;7.110;2024-01-16T02:48:38;14.40;;;6.35;;
34960;SDS011;30789;52.030;7.110;2024-01-16T02:51:05;14.10;;;7.13;;
34960;SDS011;30789;52.030;7.110;2024-01-16T02:53:31;13.27;;;6.53;;
34960;SDS011;30789;52.030;7.110;2024-01-16T02:55:58;16.02;;;6.43;;
34960;SDS011;30789;52.030;7.110;2024-01-16T02:58:26;16.15;;;6.60;;
34960;SDS011;30789;52.030;7.110;2024-01-16T03:00:53;10.73;;;6.53;;
34960;SDS011;30789;52.030;7.110;2024-01-16T03:03:19;12.48;;;6.00;;
34960;SDS011;30789;52.030;7.110;2024-01-16T03:05:46;13.38;;;6.72;;
34960;SDS011;30789;52.030;7.110;2024-01-16T03:08:13;16.83;;;7.38;;
34960;SDS011;30789;52.030;7.110;2024-01-16T03:10:40;12.10;;;6.28;;
34960;SDS011;30789;52.030;7.110;2024-01-16T03:13:06;14.00;;;6.95;;
34960;SDS011;30789;52.030;7.110;2024-01-16T03:15:34;11.27;;;6.43;;
34960;SDS011;30789;52.030;7.110;2024-01-16T03:18:01;10.52;;;7.18;;
34960;SDS011;30789;52.030;7.110;2024-01-16T03:20:28;18.60;;;7.18;;
34960;SDS011;30789;52.030;7.110;2024-01-16T03:22:54;11.45;;;7.38;;
34960;SDS011;30789;52.030;7.110;2024-01-16T03:25:21;15.60;;;6.95;;
34960;SDS011;30789;52.030;7.110;2024-01-16T03:27:48;18.17;;;7.32;;
34960;SDS011;30789;52.030;7.110;2024-01-16T03:30:14;14.18;;;8.18;;
34960;SDS011;30789;52.030;7.110;2024-01-16T03:32:43;12.70;;;7.55;;
34960;SDS011;30789;52.030;7.110;2024-01-16T03:35:09;11.90;;;8.07;;
34960;SDS011;30789;52.030;7.110;2024-01-16T03:37:37;20.45;;;8.50;;
34960;SDS011;30789;52.030;7.110;2024-01-16T03:40:04;15.70;;;7.95;;
34960;SDS011;30789;52.030;7.110;2024-01-16T03:42:32;15.07;;;8.02;;
34960;SDS011;30789;52.030;7.110;2024-01-16T03:44:59;17.35;;;8.73;;
34960;SDS011;30789;52.030;7.110;2024-01-16T03:47:25;13.20;;;7.60;;
34960;SDS011;30789;52.030;7.110;2024-01-16T03:49:53;10.30;;;8.13;;
34960;SDS011;30789;52.030;7.110;2024-01-16T03:52:20;14.52;;;8.57;;
34960;SDS011;30789;52.030;7.110;2024-01-16T03:54:46;16.67;;;8.60;;
34960;SDS011;30789;52.030;7.110;2024-01-16T03:57:13;15.65;;;8.90;;
34960;SDS011;30789;52.030;7.110;2024-01-16T03:59:39;19.23;;;8.73;;
34960;SDS011;30789;52.030;7.110;2024-01-16T04:02:06;18.48;;;8.80;;
34960;SDS011;30789;52.030;7.110;2024-01-16T04:04:33;18.27;;;8.90;;
34960;SDS011;30789;52.030;7.110;2024-01-16T04:07:00;16.42;;;9.32;;
34960;SDS011;30789;52.030;7.110;2024-01-16T04:09:27;20.95;;;9.35;;
34960;SDS011;30789;52.030;7.110;2024-01-16T04:11:54;14.35;;;9.55;;
34960;SDS011;30789;52.030;7.110;2024-01-16T04:14:20;18.08;;;9.63;;
34960;SDS011;30789;52.030;7.110;2024-01-16T04:16:47;13.63;;;8.88;;
34960;SDS011;30789;52.030;7.110;2024-01-16T04:19:13;15.23;;;8.32;;
34960;SDS011;30789;52.030;7.110;2024-01-16T04:21:40;18.60;;;9.77;;
34960;SDS011;30789;52.030;7.110;2024-01-16T04:24:08;16.90;;;9.32;;
34960;SDS011;30789;52.030;7.110;2024-01-16T04:26:35;17.88;;;11.13;;
34960;SDS011;30789;52.030;7.110;2024-01-16T04:29:02;15.02;;;9.63;;
34960;SDS011;30789;52.030;7.110;2024-01-16T04:31:29;20.27;;;10.18;;
34960;SDS011;30789;52.030;7.110;2024-01-16T04:33:56;19.45;;;9.77;;
34960;SDS011;30789;52.030;7.110;2024-01-16T04:36:22;20.05;;;9.98;;
34960;SDS011;30789;52.030;7.110;2024-01-16T04:38:49;18.77;;;9.95;;
34960;SDS011;30789;52.030;7.110;2024-01-16T04:41:18;18.45;;;10.18;;
34960;SDS011;30789;52.030;7.110;2024-01-16T04:43:45;24.02;;;10.52;;
34960;SDS011;30789;52.030;7.110;2024-01-16T04:46:11;20.60;;;10.38;;
34960;SDS011;30789;52.030;7.110;2024-01-16T04:48:40;15.93;;;9.00;;
34960;SDS011;30789;52.030;7.110;2024-01-16T04:51:07;20.40;;;10.52;;
34960;SDS011;30789;52.030;7.110;2024-01-16T04:53:34;20.95;;;10.13;;
34960;SDS011;30789;52.030;7.110;2024-01-16T04:56:01;16.17;;;9.70;;
34960;SDS011;30789;52.030;7.110;2024-01-16T04:58:29;17.73;;;10.48;;
34960;SDS011;30789;52.030;7.110;2024-01-16T05:00:55;21.23;;;10.63;;
34960;SDS011;30789;52.030;7.110;2024-01-16T05:03:22;17.48;;;10.07;;
34960;SDS011;30789;52.030;7.110;2024-01-16T05:05:48;18.40;;;9.73;;
34960;SDS011;30789;52.030;7.110;2024-01-16T05:08:15;22.45;;;10.25;;
34960;SDS011;30789;52.030;7.110;2024-01-16T05:10:41;23.05;;;10.32;;
34960;SDS011;30789;52.030;7.110;2024-01-16T05:13:08;17.80;;;9.23;;
34960;SDS011;30789;52.030;7.110;2024-01-16T05:15:40;16.00;;;10.85;;
34960;SDS011;30789;52.030;7.110;2024-01-16T05:18:07;17.10;;;9.50;;
34960;SDS011;30789;52.030;7.110;2024-01-16T05:20:34;16.85;;;10.57;;
34960;SDS011;30789;52.030;7.110;2024-01-16T05:23:01;17.70;;;10.32;;
34960;SDS011;30789;52.030;7.110;2024-01-16T05:25:28;15.20;;;9.30;;
34960;SDS011;30789;52.030;7.110;2024-01-16T05:27:55;17.40;;;9.40;;
34960;SDS011;30789;52.030;7.110;2024-01-16T05:30:21;18.60;;;9.55;;
34960;SDS011;30789;52.030;7.110;2024-01-16T05:32:49;16.05;;;9.35;;
34960;SDS011;30789;52.030;7.110;2024-01-16T05:35:17;14.65;;;8.65;;
34960;SDS011;30789;52.030;7.110;2024-01-16T05:37:43;18.10;;;8.70;;
34960;SDS011;30789;52.030;7.110;2024-01-16T05:40:10;15.02;;;9.20;;
34960;SDS011;30789;52.030;7.110;2024-01-16T05:42:37;15.43;;;9.25;;
34960;SDS011;30789;52.030;7.110;2024-01-16T05:45:04;15.50;;;8.30;;
34960;SDS011;30789;52.030;7.110;2024-01-16T05:47:31;16.70;;;7.53;;
34960;SDS011;30789;52.030;7.110;2024-01-16T05:49:59;18.15;;;8.90;;
34960;SDS011;30789;52.030;7.110;2024-01-16T05:52:25;15.75;;;8.82;;
34960;SDS011;30789;52.030;7.110;2024-01-16T05:54:52;19.02;;;7.70;;
34960;SDS011;30789;52.030;7.110;2024-01-16T05:57:22;11.85;;;7.03;;
34960;SDS011;30789;52.030;7.110;2024-01-16T05:59:48;14.18;;;7.05;;
34960;SDS011;30789;52.030;7.110;2024-01-16T06:02:15;12.70;;;6.95;;
34960;SDS011;30789;52.030;7.110;2024-01-16T06:04:42;13.93;;;7.07;;
34960;SDS011;30789;52.030;7.110;2024-01-16T06:07:09;15.43;;;7.15;;
34960;SDS011;30789;52.030;7.110;2024-01-16T06:09:38;12.40;;;7.25;;
34960;SDS011;30789;52.030;7.110;2024-01-16T06:12:05;16.25;;;7.10;;
34960;SDS011;30789;52.030;7.110;2024-01-16T06:14:33;12.65;;;7.25;;
34960;SDS011;30789;52.030;7.110;2024-01-16T06:17:00;12.55;;;7.18;;
34960;SDS011;30789;52.030;7.110;2024-01-16T06:19:28;13.45;;;7.28;;
34960;SDS011;30789;52.030;7.110;2024-01-16T06:21:54;12.63;;;7.03;;
34960;SDS011;30789;52.030;7.110;2024-01-16T06:24:22;11.15;;;6.35;;
34960;SDS011;30789;52.030;7.110;2024-01-16T06:26:49;10.80;;;7.18;;
34960;SDS011;30789;52.030;7.110;2024-01-16T06:29:16;13.45;;;7.88;;
34960;SDS011;30789;52.030;7.110;2024-01-16T06:31:42;12.45;;;7.05;;
34960;SDS011;30789;52.030;7.110;2024-01-16T06:34:09;15.25;;;7.43;;
34960;SDS011;30789;52.030;7.110;2024-01-16T06:36:36;10.88;;;7.30;;
34960;SDS011;30789;52.030;7.110;2024-01-16T06:39:02;13.68;;;7.28;;
34960;SDS011;30789;52.030;7.110;2024-01-16T06:41:30;10.07;;;6.95;;
34960;SDS011;30789;52.030;7.110;2024-01-16T06:43:57;14.02;;;7.30;;
34960;SDS011;30789;52.030;7.110;2024-01-16T06:46:23;15.80;;;7.57;;
34960;SDS011;30789;52.030;7.110;2024-01-16T06:48:50;15.85;;;7.25;;
34960;SDS011;30789;52.030;7.110;2024-01-16T06:51:17;11.98;;;7.22;;
34960;SDS011;30789;52.030;7.110;2024-01-16T06:53:43;14.40;;;7.22;;
34960;SDS011;30789;52.030;7.110;2024-01-16T06:56:10;15.23;;;7.18;;
34960;SDS011;30789;52.030;7.110;2024-01-16T06:58:38;9.25;;;6.57;;
34960;SDS011;30789;52.030;7.110;2024-01-16T07:01:04;13.93;;;6.85;;
34960;SDS011;30789;52.030;7.110;2024-01-16T07:03:33;13.75;;;7.18;;
34960;SDS011;30789;52.030;7.110;2024-01-16T10:25:16;16.42;;;10.25;;
34960;SDS011;30789;52.030;7.110;2024-01-16T10:27:45;21.88;;;9.88;;
34960;SDS011;30789;52.030;7.110;2024-01-16T10:30:13;13.65;;;8.75;;
34960;SDS011;30789;52.030;7.110;2024-01-16T15:53:38;11.68;;;6.32;;
34960;SDS011;30789;52.030;7.110;2024-01-16T15:56:06;15.60;;;6.13;;
34960;SDS011;30789;52.030;7.110;2024-01-16T15:58:45;14.93;;;5.95;;
34960;SDS011;30789;52.030;7.110;2024-01-16T16:29:14;14.02;;;7.00;;
34960;SDS011;30789;52.030;7.110;2024-01-16T16:31:41;10.15;;;6.10;;
34960;SDS011;30789;52.030;7.110;2024-01-16T16:34:09;13.50;;;7.38;;
34960;SDS011;30789;52.030;7.110;2024-01-16T16:36:38;16.20;;;7.63;;
34960;SDS011;30789;52.030;7.110;2024-01-16T16:39:06;13.48;;;7.13;;
34960;SDS011;30789;52.030;7.110;2024-01-16T16:41:33;10.55;;;6.38;;
34960;SDS011;30789;52.030;7.110;2024-01-16T16:44:06;9.90;;;6.75;;
34960;SDS011;30789;52.030;7.110;2024-01-16T16:46:34;13.40;;;9.00;;
34960;SDS011;30789;52.030;7.110;2024-01-16T16:49:01;14.70;;;7.03;;
34960;SDS011;30789;52.030;7.110;2024-01-16T16:51:27;11.10;;;7.18;;
34960;SDS011;30789;52.030;7.110;2024-01-16T16:53:55;9.98;;;6.90;;
34960;SDS011;30789;52.030;7.110;2024-01-16T16:56:22;9.48;;;6.05;;
34960;SDS011;30789;52.030;7.110;2024-01-16T16:58:50;12.45;;;6.68;;
34960;SDS011;30789;52.030;7.110;2024-01-16T17:01:19;15.88;;;8.70;;
34960;SDS011;30789;52.030;7.110;2024-01-16T17:03:48;14.10;;;7.45;;
34960;SDS011;30789;52.030;7.110;2024-01-16T17:06:17;13.65;;;7.63;;
34960;SDS011;30789;52.030;7.110;2024-01-16T17:08:48;13.52;;;7.18;;
34960;SDS011;30789;52.030;7.110;2024-01-16T17:11:15;12.30;;;7.35;;
34960;SDS011;30789;52.030;7.110;2024-01-16T17:13:42;14.15;;;6.88;;
34960;SDS011;30789;52.030;7.110;2024-01-16T17:16:14;15.82;;;8.68;;
34960;SDS011;30789;52.030;7.110;2024-01-16T17:18:49;12.98;;;7.32;;
34960;SDS011;30789;52.030;7.110;2024-01-16T17:21:16;18.48;;;7.60;;
34960;SDS011;30789;52.030;7.110;2024-01-16T17:23:44;14.00;;;7.03;;
34960;SDS011;30789;52.030;7.110;2024-01-16T17:26:11;14.13;;;7.50;;
34960;SDS011;30789;52.030;7.110;2024-01-16T17:28:40;13.18;;;6.93;;
34960;SDS011;30789;52.030;7.110;2024-01-16T17:31:08;14.25;;;7.00;;
34960;SDS011;30789;52.030;7.110;2024-01-16T17:33:35;10.55;;;6.90;;
34960;SDS011;30789;52.030;7.110;2024-01-16T17:36:03;13.13;;;7.57;;
34960;SDS011;30789;52.030;7.110;2024-01-16T17:38:35;10.57;;;6.78;;
34960;SDS011;30789;52.030;7.110;2024-01-16T17:41:02;9.82;;;6.47;;
34960;SDS011;30789;52.030;7.110;2024-01-16T17:43:29;11.18;;;6.28;;
34960;SDS011;30789;52.030;7.110;2024-01-16T17:45:56;13.65;;;7.03;;
34960;SDS011;30789;52.030;7.110;2024-01-16T17:48:23;15.18;;;6.63;;
34960;SDS011;30789;52.030;7.110;2024-01-16T17:50:51;13.18;;;7.10;;
34960;SDS011;30789;52.030;7.110;2024-01-16T17:53:19;11.85;;;7.22;;
34960;SDS011;30789;52.030;7.110;2024-01-16T17:55:46;15.55;;;7.20;;
34960;SDS011;30789;52.030;7.110;2024-01-16T17:58:13;12.50;;;7.20;;
34960;SDS011;30789;52.030;7.110;2024-01-16T18:00:40;13.77;;;7.57;;
34960;SDS011;30789;52.030;7.110;2024-01-16T18:03:07;13.57;;;6.72;;
34960;SDS011;30789;52.030;7.110;2024-01-16T18:05:37;12.20;;;6.38;;
34960;SDS011;30789;52.030;7.110;2024-01-16T18:08:04;12.80;;;7.30;;
34960;SDS011;30789;52.030;7.110;2024-01-16T18:10:34;10.90;;;6.53;;
34960;SDS011;30789;52.030;7.110;2024-01-16T18:13:01;19.08;;;7.65;;
34960;SDS011;30789;52.030;7.110;2024-01-16T18:15:28;14.80;;;7.05;;
34960;SDS011;30789;52.030;7.110;2024-01-16T18:17:56;15.10;;;8.05;;
34960;SDS011;30789;52.030;7.110;2024-01-16T18:20:24;10.75;;;6.43;;
34960;SDS011;30789;52.030;7.110;2024-01-16T18:22:56;11.27;;;6.03;;
34960;SDS011;30789;52.030;7.110;2024-01-16T18:25:25;13.52;;;7.43;;
34960;SDS011;30789;52.030;7.110;2024-01-16T18:27:53;16.38;;;7.97;;
34960;SDS011;30789;52.030;7.110;2024-01-16T18:30:22;14.90;;;7.90;;
34960;SDS011;30789;52.030;7.110;2024-01-16T18:32:51;14.27;;;6.60;;
34960;SDS011;30789;52.030;7.110;2024-01-16T18:35:19;11.98;;;7.05;;
34960;SDS011;30789;52.030;7.110;2024-01-16T18:37:46;15.55;;;7.32;;
34960;SDS011;30789;52.030;7.110;2024-01-16T18:40:14;13.73;;;7.40;;
34960;SDS011;30789;52.030;7.110;2024-01-16T18:42:43;13.32;;;6.13;;
34960;SDS011;30789;52.030;7.110;2024-01-16T18:45:11;12.27;;;6.68;;
34960;SDS011;30789;52.030;7.110;2024-01-16T18:47:38;14.48;;;7.28;;
34960;SDS011;30789;52.030;7.110;2024-01-16T18:50:07;12.45;;;6.57;;
34960;SDS011;30789;52.030;7.110;2024-01-16T18:52:35;13.60;;;6.90;;
34960;SDS011;30789;52.030;7.110;2024-01-16T18:55:04;12.00;;;5.90;;
34960;SDS011;30789;52.030;7.110;2024-01-16T18:57:37;10.88;;;6.47;;
34960;SDS011;30789;52.030;7.110;2024-01-16T19:00:06;15.38;;;6.65;;
34960;SDS011;30789;52.030;7.110;2024-01-16T19:02:40;9.00;;;6.72;;
34960;SDS011;30789;52.030;7.110;2024-01-16T19:05:08;10.45;;;6.80;;
34960;SDS011;30789;52.030;7.110;2024-01-16T19:07:38;9.10;;;5.63;;
34960;SDS011;30789;52.030;7.110;2024-01-16T19:10:06;10.32;;;5.70;;
34960;SDS011;30789;52.030;7.110;2024-01-16T19:12:37;9.52;;;5.45;;
34960;SDS011;30789;52.030;7.110;2024-01-16T19:15:08;10.93;;;5.82;;
34960;SDS011;30789;52.030;7.110;2024-01-16T19:17:35;8.65;;;5.28;;
34960;SDS011;30789;52.030;7.110;2024-01-16T19:20:07;11.40;;;6.40;;
34960;SDS011;30789;52.030;7.110;2024-01-16T19:22:38;15.50;;;6.40;;
34960;SDS011;30789;52.030;7.110;2024-01-16T19:25:06;10.52;;;5.85;;
34960;SDS011;30789;52.030;7.110;2024-01-16T19:27:33;12.40;;;5.70;;
34960;SDS011;30789;52.030;7.110;2024-01-16T19:30:01;13.13;;;6.50;;
34960;SDS011;30789;52.030;7.110;2024-01-16T19:32:30;12.73;;;6.20;;
34960;SDS011;30789;52.030;7.110;2024-01-16T19:34:57;15.07;;;6.13;;
34960;SDS011;30789;52.030;7.110;2024-01-16T19:37:25;13.02;;;6.07;;
34960;SDS011;30789;52.030;7.110;2024-01-16T19:39:54;11.38;;;5.85;;
34960;SDS011;30789;52.030;7.110;2024-01-16T19:42:21;12.15;;;6.38;;
34960;SDS011;30789;52.030;7.110;2024-01-16T19:44:48;11.85;;;5.60;;
34960;SDS011;30789;52.030;7.110;2024-01-16T19:47:15;12.85;;;6.68;;
34960;SDS011;30789;52.030;7.110;2024-01-16T19:49:42;11.63;;;6.70;;
34960;SDS011;30789;52.030;7.110;2024-01-16T19:52:09;11.85;;;6.18;;
34960;SDS011;30789;52.030;7.110;2024-01-16T19:54:38;9.18;;;6.07;;
34960;SDS011;30789;52.030;7.110;2024-01-16T19:57:05;13.35;;;6.55;;
34960;SDS011;30789;52.030;7.110;2024-01-16T19:59:33;15.18;;;7.60;;
34960;SDS011;30789;52.030;7.110;2024-01-16T20:02:00;14.18;;;6.35;;
34960;SDS011;30789;52.030;7.110;2024-01-16T20:04:26;15.02;;;7.13;;
34960;SDS011;30789;52.030;7.110;2024-01-16T20:07:17;10.65;;;6.35;;
34960;SDS011;30789;52.030;7.110;2024-01-16T20:09:43;12.25;;;6.05;;
34960;SDS011;30789;52.030;7.110;2024-01-16T20:12:11;11.55;;;6.15;;
34960;SDS011;30789;52.030;7.110;2024-01-16T20:14:38;9.52;;;6.07;;
34960;SDS011;30789;52.030;7.110;2024-01-16T20:17:08;14.73;;;6.20;;
34960;SDS011;30789;52.030;7.110;2024-01-16T20:19:39;12.88;;;6.78;;
34960;SDS011;30789;52.030;7.110;2024-01-16T20:22:06;12.80;;;6.85;;
34960;SDS011;30789;52.030;7.110;2024-01-16T20:24:38;13.88;;;6.53;;
34960;SDS011;30789;52.030;7.110;2024-01-16T20:27:05;11.57;;;5.97;;
34960;SDS011;30789;52.030;7.110;2024-01-16T20:29:32;14.90;;;6.32;;
34960;SDS011;30789;52.030;7.110;2024-01-16T20:32:01;14.98;;;7.45;;
34960;SDS011;30789;52.030;7.110;2024-01-16T20:34:29;11.00;;;6.28;;
34960;SDS011;30789;52.030;7.110;2024-01-16T20:36:56;11.57;;;6.50;;
34960;SDS011;30789;52.030;7.110;2024-01-16T20:39:23;14.35;;;6.20;;
34960;SDS011;30789;52.030;7.110;2024-01-16T20:41:53;12.98;;;7.30;;
34960;SDS011;30789;52.030;7.110;2024-01-16T20:44:23;11.50;;;6.50;;
34960;SDS011;30789;52.030;7.110;2024-01-16T20:46:51;11.07;;;6.53;;
34960;SDS011;30789;52.030;7.110;2024-01-16T20:49:20;12.48;;;7.18;;
34960;SDS011;30789;52.030;7.110;2024-01-16T20:51:46;15.05;;;6.28;;
34960;SDS011;30789;52.030;7.110;2024-01-16T20:54:13;13.02;;;6.97;;
34960;SDS011;30789;52.030;7.110;2024-01-16T20:56:40;12.05;;;5.85;;
34960;SDS011;30789;52.030;7.110;2024-01-16T20:59:10;10.00;;;6.32;;
34960;SDS011;30789;52.030;7.110;2024-01-16T21:01:38;11.80;;;5.90;;
34960;SDS011;30789;52.030;7.110;2024-01-16T21:04:05;12.25;;;6.38;;
34960;SDS011;30789;52.030;7.110;2024-01-16T21:06:31;13.82;;;6.57;;
34960;SDS011;30789;52.030;7.110;2024-01-16T21:08:58;13.10;;;6.47;;
34960;SDS011;30789;52.030;7.110;2024-01-16T21:11:24;10.70;;;6.47;;
34960;SDS011;30789;52.030;7.110;2024-01-16T21:13:51;12.90;;;6.57;;
34960;SDS011;30789;52.030;7.110;2024-01-16T21:16:19;16.40;;;7.00;;
34960;SDS011;30789;52.030;7.110;2024-01-16T21:18:45;13.73;;;7.30;;
34960;SDS011;30789;52.030;7.110;2024-01-16T21:21:14;13.18;;;7.28;;
34960;SDS011;30789;52.030;7.110;2024-01-16T21:23:41;14.63;;;6.68;;
34960;SDS011;30789;52.030;7.110;2024-01-16T21:26:08;19.05;;;7.97;;
34960;SDS011;30789;52.030;7.110;2024-01-16T21:28:35;14.38;;;7.93;;
34960;SDS011;30789;52.030;7.110;2024-01-16T21:31:02;20.38;;;7.68;;
34960;SDS011;30789;52.030;7.110;2024-01-16T21:33:30;15.80;;;8.55;;
34960;SDS011;30789;52.030;7.110;2024-01-16T21:35:57;12.77;;;8.20;;
34960;SDS011;30789;52.030;7.110;2024-01-16T21:38:24;14.55;;;8.70;;
34960;SDS011;30789;52.030;7.110;2024-01-16T21:40:51;15.38;;;8.30;;
34960;SDS011;30789;52.030;7.110;2024-01-16T21:43:17;16.52;;;8.20;;
34960;SDS011;30789;52.030;7.110;2024-01-16T21:45:44;14.52;;;8.68;;
34960;SDS011;30789;52.030;7.110;2024-01-16T21:48:11;16.70;;;8.90;;
34960;SDS011;30789;52.030;7.110;2024-01-16T21:50:40;15.45;;;9.05;;
34960;SDS011;30789;52.030;7.110;2024-01-16T21:53:07;15.45;;;8.38;;
34960;SDS011;30789;52.030;7.110;2024-01-16T21:55:34;20.85;;;9.80;;
34960;SDS011;30789;52.030;7.110;2024-01-16T21:58:01;16.02;;;8.20;;
34960;SDS011;30789;52.030;7.110;2024-01-16T22:00:27;15.98;;;8.98;;
34960;SDS011;30789;52.030;7.110;2024-01-16T22:02:54;14.00;;;7.50;;
34960;SDS011;30789;52.030;7.110;2024-01-16T22:05:22;12.73;;;8.10;;
34960;SDS011;30789;52.030;7.110;2024-01-16T22:07:51;14.52;;;8.20;;
34960;SDS011;30789;52.030;7.110;2024-01-16T22:10:18;17.90;;;8.70;;
34960;SDS011;30789;52.030;7.110;2024-01-16T22:12:44;20.30;;;9.15;;
34960;SDS011;30789;52.030;7.110;2024-01-16T22:15:11;18.08;;;9.35;;
34960;SDS011;30789;52.030;7.110;2024-01-16T22:17:38;25.92;;;10.55;;
34960;SDS011;30789;52.030;7.110;2024-01-16T22:20:07;20.27;;;10.10;;
34960;SDS011;30789;52.030;7.110;2024-01-16T22:22:35;19.50;;;9.90;;
34960;SDS011;30789;52.030;7.110;2024-01-16T22:25:06;23.92;;;10.18;;
34960;SDS011;30789;52.030;7.110;2024-01-16T22:27:33;21.58;;;9.60;;
34960;SDS011;30789;52.030;7.110;2024-01-16T22:30:00;15.57;;;9.15;;
34960;SDS011;30789;52.030;7.110;2024-01-16T22:32:26;18.35;;;8.75;;
34960;SDS011;30789;52.030;7.110;2024-01-16T22:34:53;30.15;;;10.15;;
34960;SDS011;30789;52.030;7.110;2024-01-16T22:37:20;16.25;;;9.60;;
34960;SDS011;30789;52.030;7.110;2024-01-16T22:39:50;19.88;;;10.10;;
34960;SDS011;30789;52.030;7.110;2024-01-16T22:42:18;19.40;;;9.73;;
34960;SDS011;30789;52.030;7.110;2024-01-16T22:44:47;15.07;;;8.95;;
34960;SDS011;30789;52.030;7.110;2024-01-16T22:47:14;16.60;;;8.85;;
34960;SDS011;30789;52.030;7.110;2024-01-16T22:49:40;18.17;;;8.63;;
34960;SDS011;30789;52.030;7.110;2024-01-16T22:52:07;22.02;;;9.02;;
34960;SDS011;30789;52.030;7.110;2024-01-16T22:54:34;15.20;;;8.93;;
34960;SDS011;30789;52.030;7.110;2024-01-16T22:57:01;17.52;;;8.00;;
34960;SDS011;30789;52.030;7.110;2024-01-16T22:59:29;12.00;;;7.60;;
34960;SDS011;30789;52.030;7.110;2024-01-16T23:01:55;17.42;;;8.65;;
34960;SDS011;30789;52.030;7.110;2024-01-16T23:04:24;17.33;;;7.45;;
34960;SDS011;30789;52.030;7.110;2024-01-16T23:06:51;13.93;;;7.45;;
34960;SDS011;30789;52.030;7.110;2024-01-16T23:09:17;13.07;;;7.70;;
34960;SDS011;30789;52.030;7.110;2024-01-16T23:11:44;12.38;;;7.88;;
34960;SDS011;30789;52.030;7.110;2024-01-16T23:14:10;14.18;;;7.93;;
34960;SDS011;30789;52.030;7.110;2024-01-16T23:16:39;19.40;;;8.35;;
34960;SDS011;30789;52.030;7.110;2024-01-16T23:19:06;15.48;;;8.68;;
34960;SDS011;30789;52.030;7.110;2024-01-16T23:21:35;17.67;;;8.10;;
34960;SDS011;30789;52.030;7.110;2024-01-16T23:24:02;15.27;;;8.35;;
34960;SDS011;30789;52.030;7.110;2024-01-16T23:26:29;11.13;;;7.13;;
34960;SDS011;30789;52.030;7.110;2024-01-16T23:28:55;13.07;;;7.10;;
34960;SDS011;30789;52.030;7.110;2024-01-16T23:31:22;15.65;;;7.32;;
34960;SDS011;30789;52.030;7.110;2024-01-16T23:33:51;15.45;;;8.05;;
34960;SDS011;30789;52.030;7.110;2024-01-16T23:36:17;12.43;;;7.80;;
34960;SDS011;30789;52.030;7.110;2024-01-16T23:38:44;11.75;;;7.03;;
34960;SDS011;30789;52.030;7.110;2024-01-16T23:41:11;13.57;;;7.97;;
34960;SDS011;30789;52.030;7.110;2024-01-16T23:43:37;11.23;;;7.57;;